sensor_id;sensor_type;location;lat;lon;timestamp;temperature;humidity
68257;DHT22;55069;51.568;4.656;2022-12-29T00:01:51;11.04;88.24
68257;DHT22;55069;51.568;4.656;2022-12-29T00:04:18;11.06;88.08
68257;DHT22;55069;51.568;4.656;2022-12-29T00:06:44;11.06;88.16
68257;DHT22;55069;51.568;4.656;2022-12-29T00:09:13;11.06;87.75
68257;DHT22;55069;51.568;4.656;2022-12-29T00:11:40;11.07;87.82
68257;DHT22;55069;51.568;4.656;2022-12-29T00:14:07;11.11;87.40
68257;DHT22;55069;51.568;4.656;2022-12-29T00:16:51;11.11;87.59
68257;DHT22;55069;51.568;4.656;2022-12-29T00:19:17;11.11;87.46
68257;DHT22;55069;51.568;4.656;2022-12-29T00:22:01;11.06;88.08
68257;DHT22;55069;51.568;4.656;2022-12-29T00:24:45;11.09;88.03
68257;DHT22;55069;51.568;4.656;2022-12-29T00:27:30;11.09;88.31
68257;DHT22;55069;51.568;4.656;2022-12-29T00:30:17;11.03;88.86
68257;DHT22;55069;51.568;4.656;2022-12-29T00:33:11;11.03;89.02
68257;DHT22;55069;51.568;4.656;2022-12-29T00:38:39;10.93;89.68
68257;DHT22;55069;51.568;4.656;2022-12-29T00:41:24;10.89;89.88
68257;DHT22;55069;51.568;4.656;2022-12-29T00:44:09;10.93;89.92
68257;DHT22;55069;51.568;4.656;2022-12-29T00:46:37;10.96;89.90
68257;DHT22;55069;51.568;4.656;2022-12-29T00:49:03;10.96;89.98
68257;DHT22;55069;51.568;4.656;2022-12-29T00:51:47;10.93;90.22
68257;DHT22;55069;51.568;4.656;2022-12-29T00:54:13;10.93;90.26
68257;DHT22;55069;51.568;4.656;2022-12-29T00:56:39;10.92;90.52
68257;DHT22;55069;51.568;4.656;2022-12-29T00:59:09;10.95;90.64
68257;DHT22;55069;51.568;4.656;2022-12-29T01:01:36;10.97;90.72
68257;DHT22;55069;51.568;4.656;2022-12-29T01:04:03;10.96;90.67
68257;DHT22;55069;51.568;4.656;2022-12-29T01:06:28;11.00;90.73
68257;DHT22;55069;51.568;4.656;2022-12-29T01:08:54;10.99;90.78
68257;DHT22;55069;51.568;4.656;2022-12-29T01:11:38;11.07;90.48
68257;DHT22;55069;51.568;4.656;2022-12-29T01:14:05;11.00;90.77
68257;DHT22;55069;51.568;4.656;2022-12-29T01:16:31;10.97;90.70
68257;DHT22;55069;51.568;4.656;2022-12-29T01:18:57;11.06;90.56
68257;DHT22;55069;51.568;4.656;2022-12-29T01:21:23;11.06;90.51
68257;DHT22;55069;51.568;4.656;2022-12-29T01:23:49;11.03;90.87
68257;DHT22;55069;51.568;4.656;2022-12-29T01:26:16;11.03;90.82
68257;DHT22;55069;51.568;4.656;2022-12-29T01:28:43;11.01;90.77
68257;DHT22;55069;51.568;4.656;2022-12-29T01:31:09;10.97;90.79
68257;DHT22;55069;51.568;4.656;2022-12-29T01:33:35;11.06;90.06
68257;DHT22;55069;51.568;4.656;2022-12-29T01:36:02;11.14;89.40
68257;DHT22;55069;51.568;4.656;2022-12-29T01:38:28;11.09;89.65
68257;DHT22;55069;51.568;4.656;2022-12-29T01:40:53;11.17;89.10
68257;DHT22;55069;51.568;4.656;2022-12-29T01:43:19;11.11;89.60
68257;DHT22;55069;51.568;4.656;2022-12-29T01:45:50;11.03;90.51
68257;DHT22;55069;51.568;4.656;2022-12-29T01:48:17;10.93;92.05
68257;DHT22;55069;51.568;4.656;2022-12-29T01:50:50;10.80;92.68
68257;DHT22;55069;51.568;4.656;2022-12-29T01:53:20;10.79;92.43
68257;DHT22;55069;51.568;4.656;2022-12-29T01:55:55;10.77;92.47
68257;DHT22;55069;51.568;4.656;2022-12-29T01:58:24;10.72;92.74
68257;DHT22;55069;51.568;4.656;2022-12-29T02:00:52;10.73;92.31
68257;DHT22;55069;51.568;4.656;2022-12-29T02:03:19;10.72;92.43
68257;DHT22;55069;51.568;4.656;2022-12-29T02:06:17;10.68;92.64
68257;DHT22;55069;51.568;4.656;2022-12-29T02:08:43;10.65;92.80
68257;DHT22;55069;51.568;4.656;2022-12-29T02:11:11;10.65;92.30
68257;DHT22;55069;51.568;4.656;2022-12-29T02:13:36;10.63;91.83
68257;DHT22;55069;51.568;4.656;2022-12-29T02:27:43;10.69;91.00
68257;DHT22;55069;51.568;4.656;2022-12-29T02:33:13;10.63;91.02
68257;DHT22;55069;51.568;4.656;2022-12-29T02:35:51;10.65;90.61
68257;DHT22;55069;51.568;4.656;2022-12-29T02:41:23;10.66;90.36
68257;DHT22;55069;51.568;4.656;2022-12-29T02:46:28;10.75;89.57
68257;DHT22;55069;51.568;4.656;2022-12-29T02:49:32;10.73;89.51
68257;DHT22;55069;51.568;4.656;2022-12-29T02:52:22;10.61;90.17
68257;DHT22;55069;51.568;4.656;2022-12-29T02:54:49;10.55;90.83
68257;DHT22;55069;51.568;4.656;2022-12-29T02:59:51;10.56;90.17
68257;DHT22;55069;51.568;4.656;2022-12-29T03:13:35;10.40;90.25
68257;DHT22;55069;51.568;4.656;2022-12-29T03:16:22;10.38;90.37
68257;DHT22;55069;51.568;4.656;2022-12-29T03:18:58;10.40;90.51
68257;DHT22;55069;51.568;4.656;2022-12-29T03:21:55;10.41;90.54
68257;DHT22;55069;51.568;4.656;2022-12-29T03:24:47;10.53;89.89
68257;DHT22;55069;51.568;4.656;2022-12-29T03:27:21;10.59;89.76
68257;DHT22;55069;51.568;4.656;2022-12-29T03:29:52;10.51;90.75
68257;DHT22;55069;51.568;4.656;2022-12-29T03:32:22;10.56;90.14
68257;DHT22;55069;51.568;4.656;2022-12-29T03:34:49;10.63;87.86
68257;DHT22;55069;51.568;4.656;2022-12-29T03:37:18;10.63;86.46
68257;DHT22;55069;51.568;4.656;2022-12-29T03:39:46;10.51;87.51
68257;DHT22;55069;51.568;4.656;2022-12-29T03:42:20;10.37;89.45
68257;DHT22;55069;51.568;4.656;2022-12-29T03:44:47;10.25;88.29
68257;DHT22;55069;51.568;4.656;2022-12-29T03:47:14;10.25;88.35
68257;DHT22;55069;51.568;4.656;2022-12-29T03:49:41;10.18;88.29
68257;DHT22;55069;51.568;4.656;2022-12-29T03:52:07;10.04;89.18
68257;DHT22;55069;51.568;4.656;2022-12-29T03:54:38;9.97;89.07
68257;DHT22;55069;51.568;4.656;2022-12-29T03:57:05;9.97;89.27
68257;DHT22;55069;51.568;4.656;2022-12-29T03:59:46;9.98;89.03
68257;DHT22;55069;51.568;4.656;2022-12-29T04:02:12;9.98;88.78
68257;DHT22;55069;51.568;4.656;2022-12-29T04:04:38;9.91;89.78
68257;DHT22;55069;51.568;4.656;2022-12-29T04:07:03;9.91;89.60
68257;DHT22;55069;51.568;4.656;2022-12-29T04:09:29;9.87;89.77
68257;DHT22;55069;51.568;4.656;2022-12-29T04:11:57;9.82;89.94
68257;DHT22;55069;51.568;4.656;2022-12-29T04:14:23;9.73;90.03
68257;DHT22;55069;51.568;4.656;2022-12-29T04:16:48;9.66;90.22
68257;DHT22;55069;51.568;4.656;2022-12-29T04:19:14;9.62;90.51
68257;DHT22;55069;51.568;4.656;2022-12-29T04:21:41;9.52;90.70
68257;DHT22;55069;51.568;4.656;2022-12-29T04:24:06;9.46;90.88
68257;DHT22;55069;51.568;4.656;2022-12-29T04:26:35;9.55;90.44
68257;DHT22;55069;51.568;4.656;2022-12-29T04:29:11;9.53;90.23
68257;DHT22;55069;51.568;4.656;2022-12-29T04:32:02;9.45;90.45
68257;DHT22;55069;51.568;4.656;2022-12-29T04:34:29;9.43;90.71
68257;DHT22;55069;51.568;4.656;2022-12-29T04:36:55;9.42;90.93
68257;DHT22;55069;51.568;4.656;2022-12-29T04:39:20;9.45;90.83
68257;DHT22;55069;51.568;4.656;2022-12-29T04:41:46;9.57;90.28
68257;DHT22;55069;51.568;4.656;2022-12-29T04:44:16;9.55;89.89
68257;DHT22;55069;51.568;4.656;2022-12-29T04:47:08;9.73;88.15
68257;DHT22;55069;51.568;4.656;2022-12-29T04:49:59;9.82;86.82
68257;DHT22;55069;51.568;4.656;2022-12-29T04:52:52;9.77;86.41
68257;DHT22;55069;51.568;4.656;2022-12-29T04:55:18;9.69;86.00
68257;DHT22;55069;51.568;4.656;2022-12-29T04:57:43;9.97;82.74
68257;DHT22;55069;51.568;4.656;2022-12-29T05:00:13;9.84;84.64
68257;DHT22;55069;51.568;4.656;2022-12-29T05:02:39;9.75;85.32
68257;DHT22;55069;51.568;4.656;2022-12-29T05:05:05;9.80;85.53
68257;DHT22;55069;51.568;4.656;2022-12-29T05:07:33;9.87;85.33
68257;DHT22;55069;51.568;4.656;2022-12-29T05:09:59;9.96;85.35
68257;DHT22;55069;51.568;4.656;2022-12-29T05:12:25;9.87;85.88
68257;DHT22;55069;51.568;4.656;2022-12-29T05:14:57;9.89;86.24
68257;DHT22;55069;51.568;4.656;2022-12-29T05:17:23;9.93;86.03
68257;DHT22;55069;51.568;4.656;2022-12-29T05:19:49;9.94;86.32
68257;DHT22;55069;51.568;4.656;2022-12-29T05:22:14;9.97;86.00
68257;DHT22;55069;51.568;4.656;2022-12-29T05:24:40;9.97;86.31
68257;DHT22;55069;51.568;4.656;2022-12-29T05:27:06;9.86;86.72
68257;DHT22;55069;51.568;4.656;2022-12-29T05:29:57;9.83;86.44
68257;DHT22;55069;51.568;4.656;2022-12-29T05:32:23;9.89;85.67
68257;DHT22;55069;51.568;4.656;2022-12-29T05:34:49;9.91;84.89
68257;DHT22;55069;51.568;4.656;2022-12-29T05:37:16;9.90;85.43
68257;DHT22;55069;51.568;4.656;2022-12-29T05:39:42;9.89;85.19
68257;DHT22;55069;51.568;4.656;2022-12-29T05:42:08;9.90;85.02
68257;DHT22;55069;51.568;4.656;2022-12-29T05:44:45;9.90;85.07
68257;DHT22;55069;51.568;4.656;2022-12-29T05:47:16;9.96;83.92
68257;DHT22;55069;51.568;4.656;2022-12-29T05:50:01;9.93;84.73
68257;DHT22;55069;51.568;4.656;2022-12-29T05:52:53;9.87;85.05
68257;DHT22;55069;51.568;4.656;2022-12-29T05:55:19;9.84;84.91
68257;DHT22;55069;51.568;4.656;2022-12-29T05:57:47;9.83;84.87
68257;DHT22;55069;51.568;4.656;2022-12-29T06:00:15;9.86;84.33
68257;DHT22;55069;51.568;4.656;2022-12-29T06:02:41;9.87;84.31
68257;DHT22;55069;51.568;4.656;2022-12-29T06:05:07;9.86;84.81
68257;DHT22;55069;51.568;4.656;2022-12-29T06:07:35;9.80;84.65
68257;DHT22;55069;51.568;4.656;2022-12-29T06:10:01;9.79;84.32
68257;DHT22;55069;51.568;4.656;2022-12-29T06:12:30;9.82;84.03
68257;DHT22;55069;51.568;4.656;2022-12-29T06:14:55;9.83;84.14
68257;DHT22;55069;51.568;4.656;2022-12-29T06:17:21;9.84;83.65
68257;DHT22;55069;51.568;4.656;2022-12-29T06:19:48;9.86;83.55
68257;DHT22;55069;51.568;4.656;2022-12-29T06:22:13;9.86;84.45
68257;DHT22;55069;51.568;4.656;2022-12-29T06:24:42;9.93;83.79
68257;DHT22;55069;51.568;4.656;2022-12-29T06:27:07;9.86;83.41
68257;DHT22;55069;51.568;4.656;2022-12-29T06:29:33;9.90;82.88
68257;DHT22;55069;51.568;4.656;2022-12-29T06:32:00;9.86;83.73
68257;DHT22;55069;51.568;4.656;2022-12-29T06:34:26;9.77;84.71
68257;DHT22;55069;51.568;4.656;2022-12-29T06:36:52;9.76;84.76
68257;DHT22;55069;51.568;4.656;2022-12-29T06:39:18;9.76;85.27
68257;DHT22;55069;51.568;4.656;2022-12-29T06:41:53;9.69;85.50
68257;DHT22;55069;51.568;4.656;2022-12-29T06:44:38;9.82;84.54
68257;DHT22;55069;51.568;4.656;2022-12-29T06:47:08;9.83;84.96
68257;DHT22;55069;51.568;4.656;2022-12-29T06:49:34;9.84;84.83
68257;DHT22;55069;51.568;4.656;2022-12-29T06:51:59;9.80;85.07
68257;DHT22;55069;51.568;4.656;2022-12-29T06:54:26;9.82;84.40
68257;DHT22;55069;51.568;4.656;2022-12-29T06:56:51;9.86;84.53
68257;DHT22;55069;51.568;4.656;2022-12-29T06:59:17;9.89;84.17
68257;DHT22;55069;51.568;4.656;2022-12-29T07:01:43;9.79;84.13
68257;DHT22;55069;51.568;4.656;2022-12-29T07:04:08;9.67;83.85
68257;DHT22;55069;51.568;4.656;2022-12-29T07:06:33;9.62;83.63
68257;DHT22;55069;51.568;4.656;2022-12-29T07:08:59;9.56;84.76
68257;DHT22;55069;51.568;4.656;2022-12-29T07:11:24;9.49;84.63
68257;DHT22;55069;51.568;4.656;2022-12-29T07:13:50;9.55;83.23
68257;DHT22;55069;51.568;4.656;2022-12-29T07:16:15;9.55;82.13
68257;DHT22;55069;51.568;4.656;2022-12-29T07:18:41;9.56;82.05
68257;DHT22;55069;51.568;4.656;2022-12-29T07:21:07;9.55;82.18
68257;DHT22;55069;51.568;4.656;2022-12-29T07:23:33;9.55;82.31
68257;DHT22;55069;51.568;4.656;2022-12-29T07:26:06;9.59;81.32
68257;DHT22;55069;51.568;4.656;2022-12-29T07:28:32;9.60;81.08
68257;DHT22;55069;51.568;4.656;2022-12-29T07:30:58;9.56;81.32
68257;DHT22;55069;51.568;4.656;2022-12-29T07:33:24;9.56;81.65
68257;DHT22;55069;51.568;4.656;2022-12-29T07:35:50;9.46;82.74
68257;DHT22;55069;51.568;4.656;2022-12-29T07:38:15;9.42;83.53
68257;DHT22;55069;51.568;4.656;2022-12-29T07:40:42;9.46;83.32
68257;DHT22;55069;51.568;4.656;2022-12-29T07:43:07;9.53;83.31
68257;DHT22;55069;51.568;4.656;2022-12-29T07:45:39;9.50;83.28
68257;DHT22;55069;51.568;4.656;2022-12-29T07:48:07;9.55;83.30
68257;DHT22;55069;51.568;4.656;2022-12-29T07:50:37;9.56;83.25
68257;DHT22;55069;51.568;4.656;2022-12-29T07:53:03;9.45;83.63
68257;DHT22;55069;51.568;4.656;2022-12-29T07:55:29;9.43;84.05
68257;DHT22;55069;51.568;4.656;2022-12-29T07:57:55;9.38;84.25
68257;DHT22;55069;51.568;4.656;2022-12-29T08:00:21;9.35;84.60
68257;DHT22;55069;51.568;4.656;2022-12-29T08:02:46;9.46;84.11
68257;DHT22;55069;51.568;4.656;2022-12-29T08:05:12;9.52;84.07
68257;DHT22;55069;51.568;4.656;2022-12-29T08:07:37;9.62;83.80
68257;DHT22;55069;51.568;4.656;2022-12-29T08:10:03;9.63;84.29
68257;DHT22;55069;51.568;4.656;2022-12-29T08:12:29;9.70;83.72
68257;DHT22;55069;51.568;4.656;2022-12-29T08:14:54;9.70;83.29
68257;DHT22;55069;51.568;4.656;2022-12-29T08:17:20;9.79;83.44
68257;DHT22;55069;51.568;4.656;2022-12-29T08:19:45;9.82;83.16
68257;DHT22;55069;51.568;4.656;2022-12-29T08:22:12;9.86;83.13
68257;DHT22;55069;51.568;4.656;2022-12-29T08:24:38;9.98;82.24
68257;DHT22;55069;51.568;4.656;2022-12-29T08:27:03;9.98;81.61
68257;DHT22;55069;51.568;4.656;2022-12-29T08:29:28;10.04;81.56
68257;DHT22;55069;51.568;4.656;2022-12-29T08:31:54;10.14;80.85
68257;DHT22;55069;51.568;4.656;2022-12-29T08:34:19;10.15;80.62
68257;DHT22;55069;51.568;4.656;2022-12-29T08:36:45;10.17;80.47
68257;DHT22;55069;51.568;4.656;2022-12-29T08:39:10;10.15;81.36
68257;DHT22;55069;51.568;4.656;2022-12-29T08:41:36;10.22;81.03
68257;DHT22;55069;51.568;4.656;2022-12-29T08:44:01;10.27;80.34
68257;DHT22;55069;51.568;4.656;2022-12-29T08:46:27;10.25;80.90
68257;DHT22;55069;51.568;4.656;2022-12-29T08:48:53;10.24;80.55
68257;DHT22;55069;51.568;4.656;2022-12-29T08:51:19;10.30;80.45
68257;DHT22;55069;51.568;4.656;2022-12-29T08:53:44;10.32;80.88
68257;DHT22;55069;51.568;4.656;2022-12-29T08:56:10;10.20;81.78
68257;DHT22;55069;51.568;4.656;2022-12-29T08:58:45;10.11;82.76
68257;DHT22;55069;51.568;4.656;2022-12-29T09:01:11;10.04;83.61
68257;DHT22;55069;51.568;4.656;2022-12-29T09:03:37;9.96;84.05
68257;DHT22;55069;51.568;4.656;2022-12-29T09:06:02;9.86;85.28
68257;DHT22;55069;51.568;4.656;2022-12-29T09:08:28;9.79;85.38
68257;DHT22;55069;51.568;4.656;2022-12-29T09:10:53;9.62;87.28
68257;DHT22;55069;51.568;4.656;2022-12-29T09:13:19;9.48;88.46
68257;DHT22;55069;51.568;4.656;2022-12-29T09:15:45;9.31;89.35
68257;DHT22;55069;51.568;4.656;2022-12-29T09:18:11;9.31;89.97
68257;DHT22;55069;51.568;4.656;2022-12-29T09:20:37;9.21;90.33
68257;DHT22;55069;51.568;4.656;2022-12-29T09:23:03;9.12;91.12
68257;DHT22;55069;51.568;4.656;2022-12-29T09:25:28;9.00;91.31
68257;DHT22;55069;51.568;4.656;2022-12-29T09:27:54;9.03;91.31
68257;DHT22;55069;51.568;4.656;2022-12-29T09:30:21;8.98;91.50
68257;DHT22;55069;51.568;4.656;2022-12-29T09:32:47;8.98;92.23
68257;DHT22;55069;51.568;4.656;2022-12-29T09:35:14;8.94;91.90
68257;DHT22;55069;51.568;4.656;2022-12-29T09:37:40;8.92;91.82
68257;DHT22;55069;51.568;4.656;2022-12-29T09:40:07;8.92;91.86
68257;DHT22;55069;51.568;4.656;2022-12-29T09:42:48;8.87;91.77
68257;DHT22;55069;51.568;4.656;2022-12-29T09:45:33;8.96;92.09
68257;DHT22;55069;51.568;4.656;2022-12-29T09:48:04;8.88;92.29
68257;DHT22;55069;51.568;4.656;2022-12-29T09:50:33;8.94;92.11
68257;DHT22;55069;51.568;4.656;2022-12-29T09:55:42;8.97;92.38
68257;DHT22;55069;51.568;4.656;2022-12-29T10:03:48;8.98;91.86
68257;DHT22;55069;51.568;4.656;2022-12-29T10:06:22;9.01;91.89
68257;DHT22;55069;51.568;4.656;2022-12-29T10:09:02;9.04;91.71
68257;DHT22;55069;51.568;4.656;2022-12-29T10:12:01;9.11;91.79
68257;DHT22;55069;51.568;4.656;2022-12-29T10:14:36;9.19;91.20
68257;DHT22;55069;51.568;4.656;2022-12-29T10:17:29;9.28;90.85
68257;DHT22;55069;51.568;4.656;2022-12-29T10:22:51;9.32;90.69
68257;DHT22;55069;51.568;4.656;2022-12-29T10:25:23;9.29;90.60
68257;DHT22;55069;51.568;4.656;2022-12-29T10:27:50;9.34;90.08
68257;DHT22;55069;51.568;4.656;2022-12-29T10:30:18;9.42;90.23
68257;DHT22;55069;51.568;4.656;2022-12-29T10:32:50;9.43;90.25
68257;DHT22;55069;51.568;4.656;2022-12-29T10:35:23;9.50;90.19
68257;DHT22;55069;51.568;4.656;2022-12-29T10:40:24;9.60;89.72
68257;DHT22;55069;51.568;4.656;2022-12-29T10:42:53;9.69;89.43
68257;DHT22;55069;51.568;4.656;2022-12-29T10:45:21;9.76;89.35
68257;DHT22;55069;51.568;4.656;2022-12-29T10:48:21;9.90;89.08
68257;DHT22;55069;51.568;4.656;2022-12-29T10:50:48;9.98;88.66
68257;DHT22;55069;51.568;4.656;2022-12-29T10:53:30;10.00;88.26
68257;DHT22;55069;51.568;4.656;2022-12-29T10:55:56;9.94;87.98
68257;DHT22;55069;51.568;4.656;2022-12-29T10:58:22;9.93;88.13
68257;DHT22;55069;51.568;4.656;2022-12-29T11:00:51;9.91;88.18
68257;DHT22;55069;51.568;4.656;2022-12-29T11:08:33;9.97;87.46
68257;DHT22;55069;51.568;4.656;2022-12-29T11:11:08;10.04;87.35
68257;DHT22;55069;51.568;4.656;2022-12-29T11:13:57;10.13;86.85
68257;DHT22;55069;51.568;4.656;2022-12-29T11:16:28;10.05;86.85
68257;DHT22;55069;51.568;4.656;2022-12-29T11:18:56;10.00;87.46
68257;DHT22;55069;51.568;4.656;2022-12-29T11:21:33;9.91;87.64
68257;DHT22;55069;51.568;4.656;2022-12-29T11:24:25;9.97;87.25
68257;DHT22;55069;51.568;4.656;2022-12-29T11:26:53;10.03;86.52
68257;DHT22;55069;51.568;4.656;2022-12-29T11:29:27;10.05;86.36
68257;DHT22;55069;51.568;4.656;2022-12-29T11:31:58;10.04;86.81
68257;DHT22;55069;51.568;4.656;2022-12-29T11:34:33;10.08;87.52
68257;DHT22;55069;51.568;4.656;2022-12-29T11:37:20;10.15;86.74
68257;DHT22;55069;51.568;4.656;2022-12-29T11:39:58;10.21;87.28
68257;DHT22;55069;51.568;4.656;2022-12-29T11:43:00;10.30;87.05
68257;DHT22;55069;51.568;4.656;2022-12-29T11:45:35;10.27;87.15
68257;DHT22;55069;51.568;4.656;2022-12-29T11:48:14;10.10;87.22
68257;DHT22;55069;51.568;4.656;2022-12-29T11:50:42;10.01;87.89
68257;DHT22;55069;51.568;4.656;2022-12-29T11:55:56;9.90;88.28
68257;DHT22;55069;51.568;4.656;2022-12-29T11:58:32;9.82;88.53
68257;DHT22;55069;51.568;4.656;2022-12-29T12:01:28;9.82;88.66
68257;DHT22;55069;51.568;4.656;2022-12-29T12:04:13;9.93;88.28
68257;DHT22;55069;51.568;4.656;2022-12-29T12:06:48;10.03;88.22
68257;DHT22;55069;51.568;4.656;2022-12-29T12:09:19;10.13;87.43
68257;DHT22;55069;51.568;4.656;2022-12-29T12:11:51;10.24;87.09
68257;DHT22;55069;51.568;4.656;2022-12-29T12:14:46;10.41;86.13
68257;DHT22;55069;51.568;4.656;2022-12-29T12:18:56;10.44;84.79
68257;DHT22;55069;51.568;4.656;2022-12-29T12:21:05;10.52;84.66
68257;DHT22;55069;51.568;4.656;2022-12-29T12:26:10;10.49;84.51
68257;DHT22;55069;51.568;4.656;2022-12-29T12:28:54;10.46;84.26
68257;DHT22;55069;51.568;4.656;2022-12-29T12:31:44;10.48;84.49
68257;DHT22;55069;51.568;4.656;2022-12-29T12:34:16;10.41;83.71
68257;DHT22;55069;51.568;4.656;2022-12-29T12:36:53;10.41;83.51
68257;DHT22;55069;51.568;4.656;2022-12-29T12:39:25;10.37;84.17
68257;DHT22;55069;51.568;4.656;2022-12-29T12:44:51;10.17;84.46
68257;DHT22;55069;51.568;4.656;2022-12-29T12:50:18;9.96;85.32
68257;DHT22;55069;51.568;4.656;2022-12-29T12:58:26;9.42;88.09
68257;DHT22;55069;51.568;4.656;2022-12-29T13:00:59;9.25;88.20
68257;DHT22;55069;51.568;4.656;2022-12-29T13:06:07;9.28;89.73
68257;DHT22;55069;51.568;4.656;2022-12-29T13:11:59;9.21;90.61
68257;DHT22;55069;51.568;4.656;2022-12-29T13:17:24;9.31;90.78
68257;DHT22;55069;51.568;4.656;2022-12-29T13:19:59;9.28;91.18
68257;DHT22;55069;51.568;4.656;2022-12-29T13:28:24;9.35;91.45
68257;DHT22;55069;51.568;4.656;2022-12-29T13:30:58;9.34;90.70
68257;DHT22;55069;51.568;4.656;2022-12-29T13:33:52;9.38;90.39
68257;DHT22;55069;51.568;4.656;2022-12-29T13:36:45;9.38;90.23
68257;DHT22;55069;51.568;4.656;2022-12-29T13:40:18;9.43;90.21
68257;DHT22;55069;51.568;4.656;2022-12-29T13:42:12;9.46;89.75
68257;DHT22;55069;51.568;4.656;2022-12-29T13:44:45;9.48;89.77
68257;DHT22;55069;51.568;4.656;2022-12-29T13:47:22;9.57;89.34
68257;DHT22;55069;51.568;4.656;2022-12-29T13:49:51;9.56;89.08
68257;DHT22;55069;51.568;4.656;2022-12-29T13:52:42;9.59;89.01
68257;DHT22;55069;51.568;4.656;2022-12-29T14:00:26;9.60;88.22
68257;DHT22;55069;51.568;4.656;2022-12-29T14:03:17;9.62;88.47
68257;DHT22;55069;51.568;4.656;2022-12-29T14:05:45;9.63;88.34
68257;DHT22;55069;51.568;4.656;2022-12-29T14:08:27;9.57;87.89
68257;DHT22;55069;51.568;4.656;2022-12-29T14:10:53;9.56;87.99
68257;DHT22;55069;51.568;4.656;2022-12-29T14:13:23;9.52;88.55
68257;DHT22;55069;51.568;4.656;2022-12-29T14:15:52;9.52;87.75
68257;DHT22;55069;51.568;4.656;2022-12-29T14:18:24;9.52;87.51
68257;DHT22;55069;51.568;4.656;2022-12-29T14:21:00;9.46;87.94
68257;DHT22;55069;51.568;4.656;2022-12-29T14:23:56;9.42;87.93
68257;DHT22;55069;51.568;4.656;2022-12-29T14:28:56;9.24;89.17
68257;DHT22;55069;51.568;4.656;2022-12-29T14:37:00;9.14;88.76
68257;DHT22;55069;51.568;4.656;2022-12-29T14:39:40;9.11;88.78
68257;DHT22;55069;51.568;4.656;2022-12-29T14:44:46;9.15;87.47
68257;DHT22;55069;51.568;4.656;2022-12-29T14:49:45;9.07;87.90
68257;DHT22;55069;51.568;4.656;2022-12-29T14:52:15;9.04;87.43
68257;DHT22;55069;51.568;4.656;2022-12-29T14:54:52;9.03;86.07
68257;DHT22;55069;51.568;4.656;2022-12-29T14:57:26;9.04;85.89
68257;DHT22;55069;51.568;4.656;2022-12-29T14:59:55;9.07;86.47
68257;DHT22;55069;51.568;4.656;2022-12-29T15:02:25;9.03;86.49
68257;DHT22;55069;51.568;4.656;2022-12-29T15:04:53;8.98;86.02
68257;DHT22;55069;51.568;4.656;2022-12-29T15:07:20;8.98;85.66
68257;DHT22;55069;51.568;4.656;2022-12-29T15:09:53;8.98;85.18
68257;DHT22;55069;51.568;4.656;2022-12-29T15:12:38;8.94;85.82
68257;DHT22;55069;51.568;4.656;2022-12-29T15:15:25;8.94;85.51
68257;DHT22;55069;51.568;4.656;2022-12-29T15:17:51;8.87;85.67
68257;DHT22;55069;51.568;4.656;2022-12-29T15:23:10;8.76;87.22
68257;DHT22;55069;51.568;4.656;2022-12-29T15:25:55;8.79;85.60
68257;DHT22;55069;51.568;4.656;2022-12-29T15:28:22;8.81;84.51
68257;DHT22;55069;51.568;4.656;2022-12-29T15:30:56;8.80;85.48
68257;DHT22;55069;51.568;4.656;2022-12-29T15:33:27;8.73;85.14
68257;DHT22;55069;51.568;4.656;2022-12-29T15:35:55;8.73;85.46
68257;DHT22;55069;51.568;4.656;2022-12-29T15:38:24;8.66;85.35
68257;DHT22;55069;51.568;4.656;2022-12-29T15:40:56;8.63;85.87
68257;DHT22;55069;51.568;4.656;2022-12-29T15:46:01;8.48;85.36
68257;DHT22;55069;51.568;4.656;2022-12-29T15:48:28;8.39;86.22
68257;DHT22;55069;51.568;4.656;2022-12-29T15:50:54;8.36;86.31
68257;DHT22;55069;51.568;4.656;2022-12-29T15:53:26;8.38;85.95
68257;DHT22;55069;51.568;4.656;2022-12-29T15:55:56;8.39;86.49
68257;DHT22;55069;51.568;4.656;2022-12-29T15:58:25;8.41;86.05
68257;DHT22;55069;51.568;4.656;2022-12-29T16:00:59;8.41;85.45
68257;DHT22;55069;51.568;4.656;2022-12-29T16:03:27;8.38;84.91
68257;DHT22;55069;51.568;4.656;2022-12-29T16:05:57;8.41;85.57
68257;DHT22;55069;51.568;4.656;2022-12-29T16:08:36;8.38;85.70
68257;DHT22;55069;51.568;4.656;2022-12-29T16:13:48;8.31;85.33
68257;DHT22;55069;51.568;4.656;2022-12-29T16:16:18;8.32;85.17
68257;DHT22;55069;51.568;4.656;2022-12-29T16:18:44;8.31;85.37
68257;DHT22;55069;51.568;4.656;2022-12-29T16:21:32;8.26;84.72
68257;DHT22;55069;51.568;4.656;2022-12-29T16:24:23;8.24;85.43
68257;DHT22;55069;51.568;4.656;2022-12-29T16:29:34;8.26;84.24
68257;DHT22;55069;51.568;4.656;2022-12-29T16:32:00;8.26;85.21
68257;DHT22;55069;51.568;4.656;2022-12-29T16:37:00;8.32;84.60
68257;DHT22;55069;51.568;4.656;2022-12-29T16:39:37;8.35;84.57
68257;DHT22;55069;51.568;4.656;2022-12-29T16:42:36;8.32;85.66
68257;DHT22;55069;51.568;4.656;2022-12-29T16:50:36;8.29;84.34
68257;DHT22;55069;51.568;4.656;2022-12-29T16:53:03;8.26;84.73
68257;DHT22;55069;51.568;4.656;2022-12-29T16:55:30;8.35;83.16
68257;DHT22;55069;51.568;4.656;2022-12-29T16:57:57;8.31;83.86
68257;DHT22;55069;51.568;4.656;2022-12-29T17:00:26;8.18;83.64
68257;DHT22;55069;51.568;4.656;2022-12-29T17:02:57;8.08;84.10
68257;DHT22;55069;51.568;4.656;2022-12-29T17:05:24;8.08;83.34
68257;DHT22;55069;51.568;4.656;2022-12-29T17:07:50;7.94;84.27
68257;DHT22;55069;51.568;4.656;2022-12-29T17:10:16;7.97;84.38
68257;DHT22;55069;51.568;4.656;2022-12-29T17:12:43;8.05;82.64
68257;DHT22;55069;51.568;4.656;2022-12-29T17:15:26;7.95;83.61
68257;DHT22;55069;51.568;4.656;2022-12-29T17:17:54;7.81;84.10
68257;DHT22;55069;51.568;4.656;2022-12-29T17:20:28;7.78;84.10
68257;DHT22;55069;51.568;4.656;2022-12-29T17:22:55;7.80;83.71
68257;DHT22;55069;51.568;4.656;2022-12-29T17:25:32;7.75;84.56
68257;DHT22;55069;51.568;4.656;2022-12-29T17:28:04;7.70;84.01
68257;DHT22;55069;51.568;4.656;2022-12-29T17:30:32;7.75;83.89
68257;DHT22;55069;51.568;4.656;2022-12-29T17:33:03;7.84;83.72
68257;DHT22;55069;51.568;4.656;2022-12-29T17:35:29;7.69;84.69
68257;DHT22;55069;51.568;4.656;2022-12-29T17:37:55;7.66;84.34
68257;DHT22;55069;51.568;4.656;2022-12-29T17:40:24;7.60;84.56
68257;DHT22;55069;51.568;4.656;2022-12-29T17:42:52;7.67;83.51
68257;DHT22;55069;51.568;4.656;2022-12-29T17:45:30;7.63;84.21
68257;DHT22;55069;51.568;4.656;2022-12-29T17:47:57;7.62;84.20
68257;DHT22;55069;51.568;4.656;2022-12-29T17:50:27;7.53;85.73
68257;DHT22;55069;51.568;4.656;2022-12-29T17:53:02;7.46;84.87
68257;DHT22;55069;51.568;4.656;2022-12-29T17:55:29;7.50;85.06
68257;DHT22;55069;51.568;4.656;2022-12-29T17:57:54;7.47;85.18
68257;DHT22;55069;51.568;4.656;2022-12-29T18:00:27;7.49;85.02
68257;DHT22;55069;51.568;4.656;2022-12-29T18:02:55;7.56;84.48
68257;DHT22;55069;51.568;4.656;2022-12-29T18:05:27;7.57;84.32
68257;DHT22;55069;51.568;4.656;2022-12-29T18:07:56;7.49;85.61
68257;DHT22;55069;51.568;4.656;2022-12-29T18:10:23;7.46;85.10
68257;DHT22;55069;51.568;4.656;2022-12-29T18:12:51;7.46;85.47
68257;DHT22;55069;51.568;4.656;2022-12-29T18:15:25;7.35;86.09